sensor_id;sensor_type;location;lat;lon;timestamp;P1;durP1;ratioP1;P2;durP2;ratioP2
62933;SDS011;49038;47.600;19.242;2023-03-11T00:02:04;1.65;;;1.10;;
62933;SDS011;49038;47.600;19.242;2023-03-11T00:05:07;1.08;;;0.80;;
62933;SDS011;49038;47.600;19.242;2023-03-11T00:08:11;0.80;;;0.80;;
62933;SDS011;49038;47.600;19.242;2023-03-11T00:11:17;0.73;;;0.73;;
62933;SDS011;49038;47.600;19.242;2023-03-11T00:14:20;1.70;;;1.00;;
62933;SDS011;49038;47.600;19.242;2023-03-11T00:17:22;1.58;;;0.98;;
62933;SDS011;49038;47.600;19.242;2023-03-11T00:20:35;1.48;;;0.80;;
62933;SDS011;49038;47.600;19.242;2023-03-11T00:23:41;0.80;;;0.80;;
62933;SDS011;49038;47.600;19.242;2023-03-11T00:26:44;0.70;;;0.70;;
62933;SDS011;49038;47.600;19.242;2023-03-11T00:29:46;0.60;;;0.60;;
62933;SDS011;49038;47.600;19.242;2023-03-11T00:32:52;0.70;;;0.70;;
62933;SDS011;49038;47.600;19.242;2023-03-11T00:35:55;0.80;;;0.80;;
62933;SDS011;49038;47.600;19.242;2023-03-11T00:38:58;0.60;;;0.60;;
62933;SDS011;49038;47.600;19.242;2023-03-11T00:42:02;3.33;;;0.80;;
62933;SDS011;49038;47.600;19.242;2023-03-11T00:45:05;0.55;;;0.55;;
62933;SDS011;49038;47.600;19.242;2023-03-11T00:48:08;0.60;;;0.60;;
62933;SDS011;49038;47.600;19.242;2023-03-11T00:51:11;0.60;;;0.60;;
62933;SDS011;49038;47.600;19.242;2023-03-11T00:54:15;0.55;;;0.55;;
62933;SDS011;49038;47.600;19.242;2023-03-11T00:57:17;0.60;;;0.60;;
62933;SDS011;49038;47.600;19.242;2023-03-11T01:00:20;0.60;;;0.60;;
62933;SDS011;49038;47.600;19.242;2023-03-11T01:03:23;0.50;;;0.50;;
62933;SDS011;49038;47.600;19.242;2023-03-11T01:06:26;0.77;;;0.70;;
62933;SDS011;49038;47.600;19.242;2023-03-11T01:09:40;1.50;;;1.12;;
62933;SDS011;49038;47.600;19.242;2023-03-11T01:12:42;0.60;;;0.60;;
62933;SDS011;49038;47.600;19.242;2023-03-11T01:15:44;0.52;;;0.52;;
62933;SDS011;49038;47.600;19.242;2023-03-11T01:18:46;0.80;;;0.80;;
62933;SDS011;49038;47.600;19.242;2023-03-11T01:21:49;0.60;;;0.60;;
62933;SDS011;49038;47.600;19.242;2023-03-11T01:24:51;0.95;;;0.70;;
62933;SDS011;49038;47.600;19.242;2023-03-11T01:27:53;2.45;;;0.70;;
62933;SDS011;49038;47.600;19.242;2023-03-11T01:30:56;0.60;;;0.60;;
62933;SDS011;49038;47.600;19.242;2023-03-11T01:33:58;0.70;;;0.70;;
62933;SDS011;49038;47.600;19.242;2023-03-11T01:37:01;1.67;;;0.80;;
62933;SDS011;49038;47.600;19.242;2023-03-11T01:40:04;0.70;;;0.70;;
62933;SDS011;49038;47.600;19.242;2023-03-11T01:52:54;0.70;;;0.70;;
62933;SDS011;49038;47.600;19.242;2023-03-11T01:55:57;0.70;;;0.70;;
62933;SDS011;49038;47.600;19.242;2023-03-11T01:58:59;0.68;;;0.68;;
62933;SDS011;49038;47.600;19.242;2023-03-11T02:02:07;0.70;;;0.70;;
62933;SDS011;49038;47.600;19.242;2023-03-11T02:05:12;1.17;;;0.90;;
62933;SDS011;49038;47.600;19.242;2023-03-11T02:08:14;0.90;;;0.80;;
62933;SDS011;49038;47.600;19.242;2023-03-11T02:11:24;2.05;;;0.73;;
62933;SDS011;49038;47.600;19.242;2023-03-11T02:14:28;0.77;;;0.77;;
62933;SDS011;49038;47.600;19.242;2023-03-11T02:17:31;0.60;;;0.60;;
62933;SDS011;49038;47.600;19.242;2023-03-11T02:27:24;0.80;;;0.80;;
62933;SDS011;49038;47.600;19.242;2023-03-11T02:30:28;0.60;;;0.60;;
62933;SDS011;49038;47.600;19.242;2023-03-11T02:33:30;0.77;;;0.77;;
62933;SDS011;49038;47.600;19.242;2023-03-11T02:36:35;1.75;;;0.80;;
62933;SDS011;49038;47.600;19.242;2023-03-11T02:39:43;0.60;;;0.60;;
62933;SDS011;49038;47.600;19.242;2023-03-11T02:42:47;0.60;;;0.60;;
62933;SDS011;49038;47.600;19.242;2023-03-11T02:45:53;1.33;;;0.95;;
62933;SDS011;49038;47.600;19.242;2023-03-11T02:48:57;0.77;;;0.77;;
62933;SDS011;49038;47.600;19.242;2023-03-11T02:52:00;0.70;;;0.70;;
62933;SDS011;49038;47.600;19.242;2023-03-11T02:55:03;2.50;;;0.70;;
62933;SDS011;49038;47.600;19.242;2023-03-11T02:58:06;1.10;;;0.90;;
62933;SDS011;49038;47.600;19.242;2023-03-11T03:01:08;1.60;;;0.68;;
62933;SDS011;49038;47.600;19.242;2023-03-11T03:04:11;0.80;;;0.80;;
62933;SDS011;49038;47.600;19.242;2023-03-11T03:07:13;0.75;;;0.75;;
62933;SDS011;49038;47.600;19.242;2023-03-11T03:10:16;0.73;;;0.73;;
62933;SDS011;49038;47.600;19.242;2023-03-11T03:13:19;0.80;;;0.75;;
62933;SDS011;49038;47.600;19.242;2023-03-11T03:16:21;0.80;;;0.80;;
62933;SDS011;49038;47.600;19.242;2023-03-11T03:19:23;0.70;;;0.70;;
62933;SDS011;49038;47.600;19.242;2023-03-11T03:22:26;0.75;;;0.75;;
62933;SDS011;49038;47.600;19.242;2023-03-11T03:25:30;0.82;;;0.70;;
62933;SDS011;49038;47.600;19.242;2023-03-11T03:28:32;0.75;;;0.70;;
62933;SDS011;49038;47.600;19.242;2023-03-11T03:31:34;0.70;;;0.70;;
62933;SDS011;49038;47.600;19.242;2023-03-11T03:34:36;1.20;;;0.70;;
62933;SDS011;49038;47.600;19.242;2023-03-11T03:37:39;1.48;;;0.80;;
62933;SDS011;49038;47.600;19.242;2023-03-11T03:40:44;0.75;;;0.75;;
62933;SDS011;49038;47.600;19.242;2023-03-11T03:43:47;0.73;;;0.70;;
62933;SDS011;49038;47.600;19.242;2023-03-11T03:46:49;1.92;;;0.70;;
62933;SDS011;49038;47.600;19.242;2023-03-11T03:49:51;0.80;;;0.80;;
62933;SDS011;49038;47.600;19.242;2023-03-11T03:52:54;0.75;;;0.75;;
62933;SDS011;49038;47.600;19.242;2023-03-11T03:55:56;4.80;;;0.98;;
62933;SDS011;49038;47.600;19.242;2023-03-11T03:58:58;0.88;;;0.77;;
62933;SDS011;49038;47.600;19.242;2023-03-11T04:02:00;1.00;;;1.00;;
62933;SDS011;49038;47.600;19.242;2023-03-11T04:05:03;0.90;;;0.90;;
62933;SDS011;49038;47.600;19.242;2023-03-11T04:08:05;0.95;;;0.90;;
62933;SDS011;49038;47.600;19.242;2023-03-11T04:11:08;0.75;;;0.75;;
62933;SDS011;49038;47.600;19.242;2023-03-11T04:14:10;1.10;;;0.80;;
62933;SDS011;49038;47.600;19.242;2023-03-11T04:17:13;0.70;;;0.70;;
62933;SDS011;49038;47.600;19.242;2023-03-11T04:20:15;1.00;;;0.80;;
62933;SDS011;49038;47.600;19.242;2023-03-11T04:23:17;0.80;;;0.80;;
62933;SDS011;49038;47.600;19.242;2023-03-11T04:26:19;3.33;;;0.80;;
62933;SDS011;49038;47.600;19.242;2023-03-11T04:29:22;0.75;;;0.75;;
62933;SDS011;49038;47.600;19.242;2023-03-11T04:32:24;0.68;;;0.68;;
62933;SDS011;49038;47.600;19.242;2023-03-11T04:35:26;0.82;;;0.82;;
62933;SDS011;49038;47.600;19.242;2023-03-11T04:38:28;0.60;;;0.60;;
62933;SDS011;49038;47.600;19.242;2023-03-11T04:41:31;1.15;;;0.70;;
62933;SDS011;49038;47.600;19.242;2023-03-11T04:44:33;1.35;;;0.70;;
62933;SDS011;49038;47.600;19.242;2023-03-11T04:47:36;0.82;;;0.82;;
62933;SDS011;49038;47.600;19.242;2023-03-11T04:50:38;0.90;;;0.90;;
62933;SDS011;49038;47.600;19.242;2023-03-11T04:53:41;0.93;;;0.85;;
62933;SDS011;49038;47.600;19.242;2023-03-11T04:56:43;0.80;;;0.80;;
62933;SDS011;49038;47.600;19.242;2023-03-11T04:59:45;1.10;;;1.10;;
62933;SDS011;49038;47.600;19.242;2023-03-11T05:02:48;0.80;;;0.80;;
62933;SDS011;49038;47.600;19.242;2023-03-11T05:05:50;1.15;;;0.80;;
62933;SDS011;49038;47.600;19.242;2023-03-11T05:08:54;1.73;;;0.90;;
62933;SDS011;49038;47.600;19.242;2023-03-11T05:11:57;4.15;;;1.33;;
62933;SDS011;49038;47.600;19.242;2023-03-11T05:14:59;1.58;;;1.00;;
62933;SDS011;49038;47.600;19.242;2023-03-11T05:18:01;0.90;;;0.90;;
62933;SDS011;49038;47.600;19.242;2023-03-11T05:21:04;0.98;;;0.98;;
62933;SDS011;49038;47.600;19.242;2023-03-11T05:24:07;0.80;;;0.80;;
62933;SDS011;49038;47.600;19.242;2023-03-11T05:27:09;1.00;;;1.00;;
62933;SDS011;49038;47.600;19.242;2023-03-11T05:30:11;1.75;;;1.62;;
62933;SDS011;49038;47.600;19.242;2023-03-11T05:33:13;1.27;;;1.10;;
62933;SDS011;49038;47.600;19.242;2023-03-11T05:36:16;1.12;;;0.85;;
62933;SDS011;49038;47.600;19.242;2023-03-11T05:39:18;0.98;;;0.98;;
62933;SDS011;49038;47.600;19.242;2023-03-11T05:42:20;0.90;;;0.90;;
62933;SDS011;49038;47.600;19.242;2023-03-11T05:45:23;1.05;;;1.00;;
62933;SDS011;49038;47.600;19.242;2023-03-11T05:48:25;0.90;;;0.90;;
62933;SDS011;49038;47.600;19.242;2023-03-11T05:51:28;0.88;;;0.88;;
62933;SDS011;49038;47.600;19.242;2023-03-11T05:54:30;6.93;;;3.22;;
62933;SDS011;49038;47.600;19.242;2023-03-11T05:57:32;2.33;;;1.02;;
62933;SDS011;49038;47.600;19.242;2023-03-11T06:00:34;13.18;;;3.67;;
62933;SDS011;49038;47.600;19.242;2023-03-11T06:03:37;15.32;;;4.75;;
62933;SDS011;49038;47.600;19.242;2023-03-11T06:06:40;21.73;;;7.28;;
62933;SDS011;49038;47.600;19.242;2023-03-11T06:09:42;1.30;;;1.23;;
62933;SDS011;49038;47.600;19.242;2023-03-11T06:12:45;3.87;;;1.40;;
62933;SDS011;49038;47.600;19.242;2023-03-11T06:15:47;3.47;;;1.10;;
62933;SDS011;49038;47.600;19.242;2023-03-11T06:18:49;1.48;;;0.90;;
62933;SDS011;49038;47.600;19.242;2023-03-11T06:21:52;0.90;;;0.90;;
62933;SDS011;49038;47.600;19.242;2023-03-11T06:24:54;0.90;;;0.90;;
62933;SDS011;49038;47.600;19.242;2023-03-11T06:27:56;2.17;;;2.03;;
62933;SDS011;49038;47.600;19.242;2023-03-11T06:31:06;1.00;;;1.00;;
62933;SDS011;49038;47.600;19.242;2023-03-11T06:34:10;1.23;;;1.12;;
62933;SDS011;49038;47.600;19.242;2023-03-11T06:37:12;4.62;;;1.23;;
62933;SDS011;49038;47.600;19.242;2023-03-11T06:40:14;1.20;;;1.10;;
62933;SDS011;49038;47.600;19.242;2023-03-11T06:43:17;1.02;;;1.02;;
62933;SDS011;49038;47.600;19.242;2023-03-11T06:46:20;1.10;;;1.00;;
62933;SDS011;49038;47.600;19.242;2023-03-11T06:49:23;1.42;;;1.27;;
62933;SDS011;49038;47.600;19.242;2023-03-11T06:52:25;5.03;;;0.98;;
62933;SDS011;49038;47.600;19.242;2023-03-11T06:55:27;1.08;;;1.00;;
62933;SDS011;49038;47.600;19.242;2023-03-11T06:58:30;1.30;;;1.20;;
62933;SDS011;49038;47.600;19.242;2023-03-11T07:01:32;1.20;;;1.10;;
62933;SDS011;49038;47.600;19.242;2023-03-11T07:04:35;1.60;;;1.50;;
62933;SDS011;49038;47.600;19.242;2023-03-11T07:07:37;1.52;;;1.42;;
62933;SDS011;49038;47.600;19.242;2023-03-11T07:10:39;1.20;;;1.10;;
62933;SDS011;49038;47.600;19.242;2023-03-11T07:13:42;1.00;;;1.00;;
62933;SDS011;49038;47.600;19.242;2023-03-11T07:16:44;1.42;;;1.33;;
62933;SDS011;49038;47.600;19.242;2023-03-11T07:19:46;1.17;;;1.08;;
62933;SDS011;49038;47.600;19.242;2023-03-11T07:22:49;0.98;;;0.98;;
62933;SDS011;49038;47.600;19.242;2023-03-11T07:25:51;1.00;;;1.00;;
62933;SDS011;49038;47.600;19.242;2023-03-11T07:28:54;0.90;;;0.90;;
62933;SDS011;49038;47.600;19.242;2023-03-11T07:31:56;1.20;;;1.10;;
62933;SDS011;49038;47.600;19.242;2023-03-11T07:34:58;1.40;;;1.25;;
62933;SDS011;49038;47.600;19.242;2023-03-11T07:38:01;1.17;;;1.10;;
62933;SDS011;49038;47.600;19.242;2023-03-11T07:41:03;1.75;;;1.65;;
62933;SDS011;49038;47.600;19.242;2023-03-11T07:44:06;1.00;;;1.00;;
62933;SDS011;49038;47.600;19.242;2023-03-11T07:47:10;1.05;;;1.05;;
62933;SDS011;49038;47.600;19.242;2023-03-11T07:50:12;1.67;;;1.20;;
62933;SDS011;49038;47.600;19.242;2023-03-11T07:53:15;1.02;;;1.02;;
62933;SDS011;49038;47.600;19.242;2023-03-11T07:56:17;1.75;;;1.33;;
62933;SDS011;49038;47.600;19.242;2023-03-11T07:59:20;1.15;;;1.10;;
62933;SDS011;49038;47.600;19.242;2023-03-11T08:02:22;1.95;;;0.95;;
62933;SDS011;49038;47.600;19.242;2023-03-11T08:05:24;1.00;;;1.00;;
62933;SDS011;49038;47.600;19.242;2023-03-11T08:08:26;1.55;;;1.12;;
62933;SDS011;49038;47.600;19.242;2023-03-11T08:11:29;1.15;;;1.15;;
62933;SDS011;49038;47.600;19.242;2023-03-11T08:14:32;1.52;;;1.42;;
62933;SDS011;49038;47.600;19.242;2023-03-11T08:17:34;1.00;;;1.00;;
62933;SDS011;49038;47.600;19.242;2023-03-11T08:20:37;2.28;;;1.30;;
62933;SDS011;49038;47.600;19.242;2023-03-11T08:23:40;2.42;;;1.10;;
62933;SDS011;49038;47.600;19.242;2023-03-11T08:26:42;0.90;;;0.90;;
62933;SDS011;49038;47.600;19.242;2023-03-11T08:29:44;0.90;;;0.90;;
62933;SDS011;49038;47.600;19.242;2023-03-11T08:32:46;1.08;;;1.05;;
62933;SDS011;49038;47.600;19.242;2023-03-11T08:35:50;1.25;;;1.20;;
62933;SDS011;49038;47.600;19.242;2023-03-11T08:38:52;1.20;;;1.10;;
62933;SDS011;49038;47.600;19.242;2023-03-11T08:41:54;1.65;;;1.25;;
62933;SDS011;49038;47.600;19.242;2023-03-11T08:44:56;1.17;;;1.08;;
62933;SDS011;49038;47.600;19.242;2023-03-11T08:47:59;2.75;;;1.00;;
62933;SDS011;49038;47.600;19.242;2023-03-11T08:51:01;1.00;;;1.00;;
62933;SDS011;49038;47.600;19.242;2023-03-11T08:54:07;1.52;;;1.40;;
62933;SDS011;49038;47.600;19.242;2023-03-11T13:09:41;2.60;;;1.73;;
62933;SDS011;49038;47.600;19.242;2023-03-11T13:12:44;3.47;;;1.35;;
62933;SDS011;49038;47.600;19.242;2023-03-11T13:15:48;1.40;;;1.30;;
62933;SDS011;49038;47.600;19.242;2023-03-11T13:18:51;1.30;;;1.20;;
62933;SDS011;49038;47.600;19.242;2023-03-11T13:21:53;3.00;;;2.00;;
62933;SDS011;49038;47.600;19.242;2023-03-11T13:24:58;6.32;;;1.40;;
62933;SDS011;49038;47.600;19.242;2023-03-11T13:39:17;2.00;;;1.75;;
62933;SDS011;49038;47.600;19.242;2023-03-11T13:45:32;1.70;;;1.33;;
62933;SDS011;49038;47.600;19.242;2023-03-11T13:48:46;1.40;;;1.30;;
62933;SDS011;49038;47.600;19.242;2023-03-11T13:51:50;1.25;;;1.20;;
62933;SDS011;49038;47.600;19.242;2023-03-11T13:54:57;2.12;;;1.80;;
62933;SDS011;49038;47.600;19.242;2023-03-11T14:01:36;1.77;;;1.37;;
62933;SDS011;49038;47.600;19.242;2023-03-11T14:04:38;1.67;;;1.58;;
62933;SDS011;49038;47.600;19.242;2023-03-11T14:07:44;2.80;;;1.65;;
62933;SDS011;49038;47.600;19.242;2023-03-11T14:10:59;4.35;;;2.45;;
62933;SDS011;49038;47.600;19.242;2023-03-11T14:14:18;1.52;;;1.42;;
62933;SDS011;49038;47.600;19.242;2023-03-11T14:17:31;6.00;;;2.67;;
62933;SDS011;49038;47.600;19.242;2023-03-11T14:20:34;10.85;;;1.90;;
62933;SDS011;49038;47.600;19.242;2023-03-11T14:23:44;3.05;;;2.05;;
62933;SDS011;49038;47.600;19.242;2023-03-11T14:26:48;9.97;;;1.80;;
62933;SDS011;49038;47.600;19.242;2023-03-11T14:29:54;4.28;;;2.72;;
62933;SDS011;49038;47.600;19.242;2023-03-11T14:36:03;2.70;;;2.28;;
62933;SDS011;49038;47.600;19.242;2023-03-11T14:42:33;1.60;;;1.50;;
62933;SDS011;49038;47.600;19.242;2023-03-11T14:45:40;1.83;;;1.70;;
62933;SDS011;49038;47.600;19.242;2023-03-11T14:48:43;2.10;;;1.90;;
62933;SDS011;49038;47.600;19.242;2023-03-11T14:51:45;1.45;;;1.35;;
62933;SDS011;49038;47.600;19.242;2023-03-11T14:54:50;1.65;;;1.52;;
62933;SDS011;49038;47.600;19.242;2023-03-11T14:57:55;4.12;;;2.40;;
62933;SDS011;49038;47.600;19.242;2023-03-11T15:01:23;4.57;;;2.40;;
62933;SDS011;49038;47.600;19.242;2023-03-11T15:04:29;2.97;;;2.20;;
62933;SDS011;49038;47.600;19.242;2023-03-11T15:07:34;1.83;;;1.73;;
62933;SDS011;49038;47.600;19.242;2023-03-11T15:10:37;3.78;;;2.03;;
62933;SDS011;49038;47.600;19.242;2023-03-11T15:13:40;6.62;;;3.15;;
62933;SDS011;49038;47.600;19.242;2023-03-11T15:16:44;4.15;;;2.50;;
62933;SDS011;49038;47.600;19.242;2023-03-11T15:19:46;5.20;;;2.92;;
62933;SDS011;49038;47.600;19.242;2023-03-11T15:22:52;6.12;;;4.00;;
62933;SDS011;49038;47.600;19.242;2023-03-11T15:26:02;4.20;;;2.70;;
62933;SDS011;49038;47.600;19.242;2023-03-11T15:29:15;2.65;;;2.17;;
62933;SDS011;49038;47.600;19.242;2023-03-11T15:35:44;2.47;;;1.92;;
62933;SDS011;49038;47.600;19.242;2023-03-11T15:38:47;3.08;;;2.22;;
62933;SDS011;49038;47.600;19.242;2023-03-11T15:42:27;2.50;;;2.03;;
62933;SDS011;49038;47.600;19.242;2023-03-11T15:45:29;2.37;;;2.17;;
62933;SDS011;49038;47.600;19.242;2023-03-11T15:48:32;3.00;;;2.67;;
62933;SDS011;49038;47.600;19.242;2023-03-11T15:51:34;2.08;;;1.85;;
62933;SDS011;49038;47.600;19.242;2023-03-11T15:54:36;2.92;;;2.55;;
62933;SDS011;49038;47.600;19.242;2023-03-11T15:57:39;3.35;;;2.03;;
62933;SDS011;49038;47.600;19.242;2023-03-11T16:00:46;2.25;;;2.00;;
62933;SDS011;49038;47.600;19.242;2023-03-11T16:03:53;5.13;;;3.50;;
62933;SDS011;49038;47.600;19.242;2023-03-11T16:06:56;5.60;;;2.75;;
62933;SDS011;49038;47.600;19.242;2023-03-11T16:10:09;2.33;;;2.12;;
62933;SDS011;49038;47.600;19.242;2023-03-11T16:13:13;2.35;;;2.12;;
62933;SDS011;49038;47.600;19.242;2023-03-11T16:16:15;2.28;;;2.03;;
62933;SDS011;49038;47.600;19.242;2023-03-11T16:19:19;5.93;;;2.85;;
62933;SDS011;49038;47.600;19.242;2023-03-11T16:22:23;2.05;;;1.80;;
62933;SDS011;49038;47.600;19.242;2023-03-11T16:25:38;1.60;;;1.50;;
62933;SDS011;49038;47.600;19.242;2023-03-11T16:28:41;3.58;;;2.17;;
62933;SDS011;49038;47.600;19.242;2023-03-11T16:31:44;2.30;;;2.10;;
62933;SDS011;49038;47.600;19.242;2023-03-11T16:34:46;3.55;;;2.85;;
62933;SDS011;49038;47.600;19.242;2023-03-11T16:37:48;5.20;;;2.20;;
62933;SDS011;49038;47.600;19.242;2023-03-11T16:40:54;6.80;;;3.08;;
62933;SDS011;49038;47.600;19.242;2023-03-11T16:44:03;2.15;;;1.98;;
62933;SDS011;49038;47.600;19.242;2023-03-11T16:47:05;3.15;;;2.35;;
62933;SDS011;49038;47.600;19.242;2023-03-11T16:50:08;3.15;;;2.25;;
62933;SDS011;49038;47.600;19.242;2023-03-11T16:53:11;2.67;;;2.25;;
62933;SDS011;49038;47.600;19.242;2023-03-11T16:56:16;3.20;;;1.83;;
62933;SDS011;49038;47.600;19.242;2023-03-11T16:59:19;2.47;;;2.15;;
62933;SDS011;49038;47.600;19.242;2023-03-11T17:02:22;3.50;;;2.37;;
62933;SDS011;49038;47.600;19.242;2023-03-11T17:05:25;1.80;;;1.67;;
62933;SDS011;49038;47.600;19.242;2023-03-11T17:08:27;1.95;;;1.75;;
62933;SDS011;49038;47.600;19.242;2023-03-11T17:11:29;1.92;;;1.80;;
62933;SDS011;49038;47.600;19.242;2023-03-11T17:14:34;2.17;;;1.98;;
62933;SDS011;49038;47.600;19.242;2023-03-11T17:17:37;4.68;;;3.50;;
62933;SDS011;49038;47.600;19.242;2023-03-11T17:20:39;2.10;;;1.70;;
62933;SDS011;49038;47.600;19.242;2023-03-11T17:23:44;6.05;;;2.33;;
62933;SDS011;49038;47.600;19.242;2023-03-11T17:26:47;2.10;;;1.90;;
62933;SDS011;49038;47.600;19.242;2023-03-11T17:29:49;3.47;;;2.03;;
62933;SDS011;49038;47.600;19.242;2023-03-11T17:32:51;1.87;;;1.75;;
62933;SDS011;49038;47.600;19.242;2023-03-11T17:36:03;1.60;;;1.50;;
62933;SDS011;49038;47.600;19.242;2023-03-11T17:39:07;1.73;;;1.48;;
62933;SDS011;49038;47.600;19.242;2023-03-11T17:42:10;2.60;;;1.77;;
62933;SDS011;49038;47.600;19.242;2023-03-11T17:45:12;1.98;;;1.87;;
62933;SDS011;49038;47.600;19.242;2023-03-11T17:48:14;4.05;;;2.20;;
62933;SDS011;49038;47.600;19.242;2023-03-11T17:51:18;1.60;;;1.50;;
62933;SDS011;49038;47.600;19.242;2023-03-11T17:54:22;2.53;;;2.12;;
62933;SDS011;49038;47.600;19.242;2023-03-11T17:57:25;11.68;;;5.53;;
62933;SDS011;49038;47.600;19.242;2023-03-11T18:00:27;10.68;;;5.90;;
62933;SDS011;49038;47.600;19.242;2023-03-11T18:03:30;11.70;;;4.85;;
62933;SDS011;49038;47.600;19.242;2023-03-11T18:06:32;3.00;;;1.83;;
62933;SDS011;49038;47.600;19.242;2023-03-11T18:09:35;4.97;;;2.85;;
62933;SDS011;49038;47.600;19.242;2023-03-11T18:12:37;2.67;;;2.15;;
62933;SDS011;49038;47.600;19.242;2023-03-11T18:15:40;5.37;;;2.53;;
62933;SDS011;49038;47.600;19.242;2023-03-11T18:18:42;2.95;;;2.22;;
62933;SDS011;49038;47.600;19.242;2023-03-11T18:21:45;9.07;;;3.30;;
62933;SDS011;49038;47.600;19.242;2023-03-11T18:24:47;12.35;;;5.47;;
62933;SDS011;49038;47.600;19.242;2023-03-11T18:27:50;8.13;;;2.87;;
62933;SDS011;49038;47.600;19.242;2023-03-11T18:30:53;3.03;;;2.30;;
62933;SDS011;49038;47.600;19.242;2023-03-11T18:33:56;6.05;;;3.87;;
62933;SDS011;49038;47.600;19.242;2023-03-11T18:37:00;7.57;;;3.53;;
62933;SDS011;49038;47.600;19.242;2023-03-11T18:40:03;4.50;;;3.75;;
62933;SDS011;49038;47.600;19.242;2023-03-11T18:43:06;3.50;;;2.05;;
62933;SDS011;49038;47.600;19.242;2023-03-11T18:46:10;5.15;;;3.12;;
62933;SDS011;49038;47.600;19.242;2023-03-11T18:49:15;6.82;;;2.90;;
62933;SDS011;49038;47.600;19.242;2023-03-11T18:52:17;4.20;;;2.22;;
62933;SDS011;49038;47.600;19.242;2023-03-11T18:55:20;2.47;;;2.28;;
62933;SDS011;49038;47.600;19.242;2023-03-11T18:58:22;4.05;;;2.30;;
62933;SDS011;49038;47.600;19.242;2023-03-11T19:01:25;2.87;;;2.20;;
62933;SDS011;49038;47.600;19.242;2023-03-11T19:04:28;2.95;;;2.00;;
62933;SDS011;49038;47.600;19.242;2023-03-11T19:07:31;5.15;;;3.15;;
62933;SDS011;49038;47.600;19.242;2023-03-11T19:10:33;5.03;;;2.75;;
62933;SDS011;49038;47.600;19.242;2023-03-11T19:13:36;2.37;;;2.17;;
62933;SDS011;49038;47.600;19.242;2023-03-11T19:16:48;3.55;;;2.75;;
62933;SDS011;49038;47.600;19.242;2023-03-11T19:19:50;3.87;;;2.83;;
62933;SDS011;49038;47.600;19.242;2023-03-11T19:22:56;3.20;;;2.12;;
62933;SDS011;49038;47.600;19.242;2023-03-11T19:25:58;4.18;;;2.12;;
62933;SDS011;49038;47.600;19.242;2023-03-11T19:29:04;2.30;;;2.10;;
62933;SDS011;49038;47.600;19.242;2023-03-11T19:32:07;2.42;;;2.10;;
62933;SDS011;49038;47.600;19.242;2023-03-11T19:35:10;3.22;;;2.92;;
62933;SDS011;49038;47.600;19.242;2023-03-11T19:38:14;2.90;;;2.40;;
62933;SDS011;49038;47.600;19.242;2023-03-11T19:41:17;2.95;;;2.37;;
62933;SDS011;49038;47.600;19.242;2023-03-11T19:44:20;3.37;;;2.10;;
62933;SDS011;49038;47.600;19.242;2023-03-11T19:47:23;1.77;;;1.67;;
62933;SDS011;49038;47.600;19.242;2023-03-11T19:50:25;3.10;;;1.85;;
62933;SDS011;49038;47.600;19.242;2023-03-11T19:53:28;6.37;;;2.97;;
62933;SDS011;49038;47.600;19.242;2023-03-11T19:56:30;2.85;;;1.95;;
62933;SDS011;49038;47.600;19.242;2023-03-11T19:59:33;2.37;;;2.17;;
62933;SDS011;49038;47.600;19.242;2023-03-11T20:02:35;2.80;;;2.40;;
62933;SDS011;49038;47.600;19.242;2023-03-11T20:05:39;2.45;;;1.98;;
62933;SDS011;49038;47.600;19.242;2023-03-11T20:08:42;2.90;;;1.83;;
62933;SDS011;49038;47.600;19.242;2023-03-11T20:11:45;1.80;;;1.55;;
62933;SDS011;49038;47.600;19.242;2023-03-11T20:14:47;1.83;;;1.62;;
62933;SDS011;49038;47.600;19.242;2023-03-11T20:17:50;2.30;;;2.10;;
62933;SDS011;49038;47.600;19.242;2023-03-11T20:20:52;2.15;;;1.95;;
62933;SDS011;49038;47.600;19.242;2023-03-11T20:23:55;3.95;;;2.10;;
62933;SDS011;49038;47.600;19.242;2023-03-11T20:26:58;5.35;;;2.78;;
62933;SDS011;49038;47.600;19.242;2023-03-11T20:30:00;3.55;;;2.62;;
62933;SDS011;49038;47.600;19.242;2023-03-11T20:33:03;3.80;;;2.62;;
62933;SDS011;49038;47.600;19.242;2023-03-11T20:36:06;2.25;;;2.05;;
62933;SDS011;49038;47.600;19.242;2023-03-11T20:39:10;3.12;;;2.35;;
62933;SDS011;49038;47.600;19.242;2023-03-11T20:42:13;2.67;;;2.47;;
62933;SDS011;49038;47.600;19.242;2023-03-11T20:45:16;2.20;;;2.00;;
62933;SDS011;49038;47.600;19.242;2023-03-11T20:48:23;2.60;;;2.20;;
62933;SDS011;49038;47.600;19.242;2023-03-11T20:51:25;2.80;;;2.45;;
62933;SDS011;49038;47.600;19.242;2023-03-11T20:54:27;3.42;;;2.42;;
62933;SDS011;49038;47.600;19.242;2023-03-11T20:57:30;2.33;;;2.10;;
62933;SDS011;49038;47.600;19.242;2023-03-11T21:00:32;2.90;;;2.53;;
62933;SDS011;49038;47.600;19.242;2023-03-11T21:03:35;4.47;;;2.12;;
62933;SDS011;49038;47.600;19.242;2023-03-11T21:06:38;2.72;;;2.53;;
62933;SDS011;49038;47.600;19.242;2023-03-11T21:09:42;3.12;;;2.05;;
62933;SDS011;49038;47.600;19.242;2023-03-11T21:12:44;3.45;;;2.50;;
62933;SDS011;49038;47.600;19.242;2023-03-11T21:15:46;3.53;;;2.22;;
62933;SDS011;49038;47.600;19.242;2023-03-11T21:18:49;2.25;;;2.05;;
62933;SDS011;49038;47.600;19.242;2023-03-11T21:21:52;2.25;;;1.83;;
62933;SDS011;49038;47.600;19.242;2023-03-11T21:24:54;2.85;;;2.45;;
62933;SDS011;49038;47.600;19.242;2023-03-11T21:27:57;4.07;;;2.25;;
62933;SDS011;49038;47.600;19.242;2023-03-11T21:31:01;3.22;;;2.55;;
62933;SDS011;49038;47.600;19.242;2023-03-11T21:34:05;2.03;;;1.90;;
62933;SDS011;49038;47.600;19.242;2023-03-11T21:37:07;2.08;;;1.87;;
62933;SDS011;49038;47.600;19.242;2023-03-11T21:40:10;2.17;;;1.98;;
62933;SDS011;49038;47.600;19.242;2023-03-11T21:43:13;2.08;;;1.98;;
62933;SDS011;49038;47.600;19.242;2023-03-11T21:46:16;1.87;;;1.77;;
62933;SDS011;49038;47.600;19.242;2023-03-11T21:49:20;3.25;;;2.53;;
62933;SDS011;49038;47.600;19.242;2023-03-11T21:52:22;2.58;;;2.00;;
62933;SDS011;49038;47.600;19.242;2023-03-11T21:55:25;2.80;;;2.60;;
62933;SDS011;49038;47.600;19.242;2023-03-11T21:58:27;2.40;;;2.20;;
62933;SDS011;49038;47.600;19.242;2023-03-11T22:01:29;3.20;;;2.78;;
62933;SDS011;49038;47.600;19.242;2023-03-11T22:04:32;2.20;;;2.00;;
62933;SDS011;49038;47.600;19.242;2023-03-11T22:07:34;2.22;;;2.03;;
62933;SDS011;49038;47.600;19.242;2023-03-11T22:10:37;2.10;;;1.90;;
62933;SDS011;49038;47.600;19.242;2023-03-11T22:13:39;2.00;;;1.70;;
62933;SDS011;49038;47.600;19.242;2023-03-11T22:16:42;2.62;;;2.28;;
62933;SDS011;49038;47.600;19.242;2023-03-11T22:19:44;7.53;;;3.80;;
62933;SDS011;49038;47.600;19.242;2023-03-11T22:22:47;2.75;;;2.47;;
62933;SDS011;49038;47.600;19.242;2023-03-11T22:25:49;3.60;;;1.87;;
62933;SDS011;49038;47.600;19.242;2023-03-11T22:28:51;2.97;;;2.53;;
62933;SDS011;49038;47.600;19.242;2023-03-11T22:31:53;2.15;;;1.95;;
62933;SDS011;49038;47.600;19.242;2023-03-11T22:34:56;3.50;;;2.72;;
62933;SDS011;49038;47.600;19.242;2023-03-11T22:37:58;3.30;;;2.30;;
62933;SDS011;49038;47.600;19.242;2023-03-11T22:41:02;2.12;;;2.00;;
62933;SDS011;49038;47.600;19.242;2023-03-11T22:44:05;2.50;;;2.30;;
62933;SDS011;49038;47.600;19.242;2023-03-11T22:47:07;2.08;;;1.87;;
62933;SDS011;49038;47.600;19.242;2023-03-11T22:50:10;1.83;;;1.73;;
62933;SDS011;49038;47.600;19.242;2023-03-11T22:53:12;2.17;;;1.98;;
62933;SDS011;49038;47.600;19.242;2023-03-11T22:56:16;2.30;;;2.00;;
62933;SDS011;49038;47.600;19.242;2023-03-11T22:59:19;2.30;;;1.83;;
62933;SDS011;49038;47.600;19.242;2023-03-11T23:02:21;2.12;;;1.90;;
62933;SDS011;49038;47.600;19.242;2023-03-11T23:05:23;2.00;;;1.90;;